sensor_id;sensor_type;location;lat;lon;timestamp;temperature;humidity
18690;DHT22;9782;52.930;15.562;2023-02-02T00:01:20;4.90;1.00
18690;DHT22;9782;52.930;15.562;2023-02-02T00:03:48;5.00;1.00
18690;DHT22;9782;52.930;15.562;2023-02-02T00:06:15;5.00;1.00
18690;DHT22;9782;52.930;15.562;2023-02-02T00:08:43;5.00;1.00
18690;DHT22;9782;52.930;15.562;2023-02-02T00:11:11;5.00;1.00
18690;DHT22;9782;52.930;15.562;2023-02-02T00:13:39;5.00;1.00
18690;DHT22;9782;52.930;15.562;2023-02-02T00:16:37;5.00;1.00
18690;DHT22;9782;52.930;15.562;2023-02-02T00:19:06;5.00;1.00
18690;DHT22;9782;52.930;15.562;2023-02-02T00:21:34;5.00;99.90
18690;DHT22;9782;52.930;15.562;2023-02-02T00:24:01;5.10;99.90
18690;DHT22;9782;52.930;15.562;2023-02-02T00:26:29;5.10;99.90
18690;DHT22;9782;52.930;15.562;2023-02-02T00:28:56;5.10;99.90
18690;DHT22;9782;52.930;15.562;2023-02-02T00:31:23;5.10;99.90
18690;DHT22;9782;52.930;15.562;2023-02-02T00:33:50;5.00;99.90
18690;DHT22;9782;52.930;15.562;2023-02-02T00:36:18;5.00;99.90
18690;DHT22;9782;52.930;15.562;2023-02-02T00:38:46;5.00;99.90
18690;DHT22;9782;52.930;15.562;2023-02-02T00:41:12;4.90;99.90
18690;DHT22;9782;52.930;15.562;2023-02-02T00:43:41;4.90;1.00
18690;DHT22;9782;52.930;15.562;2023-02-02T00:46:10;4.90;1.00
18690;DHT22;9782;52.930;15.562;2023-02-02T00:48:38;5.00;1.00
18690;DHT22;9782;52.930;15.562;2023-02-02T00:51:05;5.00;1.00
18690;DHT22;9782;52.930;15.562;2023-02-02T00:53:32;5.00;1.00
18690;DHT22;9782;52.930;15.562;2023-02-02T00:55:59;4.90;1.00
18690;DHT22;9782;52.930;15.562;2023-02-02T00:58:26;4.90;1.00
18690;DHT22;9782;52.930;15.562;2023-02-02T01:00:54;4.90;1.00
18690;DHT22;9782;52.930;15.562;2023-02-02T01:03:21;4.90;1.00
18690;DHT22;9782;52.930;15.562;2023-02-02T01:05:47;4.90;1.00
18690;DHT22;9782;52.930;15.562;2023-02-02T01:08:16;4.80;1.00
18690;DHT22;9782;52.930;15.562;2023-02-02T01:10:43;4.80;1.00
18690;DHT22;9782;52.930;15.562;2023-02-02T01:13:10;4.80;1.00
18690;DHT22;9782;52.930;15.562;2023-02-02T01:15:37;4.80;1.00
18690;DHT22;9782;52.930;15.562;2023-02-02T01:18:05;4.80;1.00
18690;DHT22;9782;52.930;15.562;2023-02-02T01:20:32;4.80;1.00
18690;DHT22;9782;52.930;15.562;2023-02-02T01:22:59;4.80;29.40
18690;DHT22;9782;52.930;15.562;2023-02-02T01:25:26;4.80;98.60
18690;DHT22;9782;52.930;15.562;2023-02-02T01:27:54;4.70;99.90
18690;DHT22;9782;52.930;15.562;2023-02-02T01:30:21;4.80;99.90
18690;DHT22;9782;52.930;15.562;2023-02-02T01:32:48;4.70;99.90
18690;DHT22;9782;52.930;15.562;2023-02-02T01:35:16;4.70;99.90
18690;DHT22;9782;52.930;15.562;2023-02-02T01:37:43;4.70;99.90
18690;DHT22;9782;52.930;15.562;2023-02-02T01:40:11;4.70;99.90
18690;DHT22;9782;52.930;15.562;2023-02-02T01:42:38;4.70;1.00
18690;DHT22;9782;52.930;15.562;2023-02-02T01:45:19;4.70;1.00
18690;DHT22;9782;52.930;15.562;2023-02-02T01:47:48;4.70;1.00
18690;DHT22;9782;52.930;15.562;2023-02-02T01:50:19;4.80;1.00
18690;DHT22;9782;52.930;15.562;2023-02-02T01:52:48;4.70;1.00
18690;DHT22;9782;52.930;15.562;2023-02-02T01:55:19;4.80;1.00
18690;DHT22;9782;52.930;15.562;2023-02-02T01:57:52;4.70;1.00
18690;DHT22;9782;52.930;15.562;2023-02-02T02:00:20;4.80;1.00
18690;DHT22;9782;52.930;15.562;2023-02-02T02:02:52;4.80;1.00
18690;DHT22;9782;52.930;15.562;2023-02-02T02:05:26;4.80;1.00
18690;DHT22;9782;52.930;15.562;2023-02-02T02:08:00;4.80;1.00
18690;DHT22;9782;52.930;15.562;2023-02-02T02:10:28;4.80;1.00
18690;DHT22;9782;52.930;15.562;2023-02-02T02:12:55;4.80;1.00
18690;DHT22;9782;52.930;15.562;2023-02-02T02:15:22;4.80;1.00
18690;DHT22;9782;52.930;15.562;2023-02-02T02:18:16;4.90;21.10
18690;DHT22;9782;52.930;15.562;2023-02-02T02:25:00;4.90;99.90
18690;DHT22;9782;52.930;15.562;2023-02-02T02:30:59;4.80;99.90
18690;DHT22;9782;52.930;15.562;2023-02-02T02:33:34;4.80;99.90
18690;DHT22;9782;52.930;15.562;2023-02-02T02:36:13;4.80;1.00
18690;DHT22;9782;52.930;15.562;2023-02-02T02:38:49;4.80;1.00
18690;DHT22;9782;52.930;15.562;2023-02-02T02:41:20;4.80;1.00
18690;DHT22;9782;52.930;15.562;2023-02-02T02:43:51;4.80;1.00
18690;DHT22;9782;52.930;15.562;2023-02-02T02:46:20;4.80;1.00
18690;DHT22;9782;52.930;15.562;2023-02-02T02:48:50;4.70;1.00
18690;DHT22;9782;52.930;15.562;2023-02-02T02:51:40;4.70;99.90
18690;DHT22;9782;52.930;15.562;2023-02-02T02:54:07;4.70;99.90
18690;DHT22;9782;52.930;15.562;2023-02-02T02:56:43;4.60;99.90
18690;DHT22;9782;52.930;15.562;2023-02-02T02:59:17;4.60;1.00
18690;DHT22;9782;52.930;15.562;2023-02-02T03:01:51;4.60;1.00
18690;DHT22;9782;52.930;15.562;2023-02-02T03:04:24;4.60;1.00
18690;DHT22;9782;52.930;15.562;2023-02-02T03:06:57;4.50;45.70
18690;DHT22;9782;52.930;15.562;2023-02-02T03:09:29;4.50;99.90
18690;DHT22;9782;52.930;15.562;2023-02-02T03:11:59;4.50;1.00
18690;DHT22;9782;52.930;15.562;2023-02-02T03:14:26;4.50;1.00
18690;DHT22;9782;52.930;15.562;2023-02-02T03:16:53;4.50;99.90
18690;DHT22;9782;52.930;15.562;2023-02-02T03:19:21;4.40;1.00
18690;DHT22;9782;52.930;15.562;2023-02-02T03:21:48;4.50;1.00
18690;DHT22;9782;52.930;15.562;2023-02-02T03:24:15;4.50;1.00
18690;DHT22;9782;52.930;15.562;2023-02-02T03:26:42;4.50;1.00
18690;DHT22;9782;52.930;15.562;2023-02-02T03:29:10;4.50;1.00
18690;DHT22;9782;52.930;15.562;2023-02-02T03:31:37;4.50;99.90
18690;DHT22;9782;52.930;15.562;2023-02-02T03:34:04;4.50;99.90
18690;DHT22;9782;52.930;15.562;2023-02-02T03:36:32;4.40;99.90
18690;DHT22;9782;52.930;15.562;2023-02-02T03:38:59;4.40;99.90
18690;DHT22;9782;52.930;15.562;2023-02-02T03:41:26;4.50;99.90
18690;DHT22;9782;52.930;15.562;2023-02-02T03:43:52;4.60;99.90
18690;DHT22;9782;52.930;15.562;2023-02-02T03:46:19;4.60;99.90
18690;DHT22;9782;52.930;15.562;2023-02-02T03:48:46;4.60;99.90
18690;DHT22;9782;52.930;15.562;2023-02-02T03:51:13;4.60;99.90
18690;DHT22;9782;52.930;15.562;2023-02-02T03:53:42;4.60;99.90
18690;DHT22;9782;52.930;15.562;2023-02-02T03:56:12;4.60;99.90
18690;DHT22;9782;52.930;15.562;2023-02-02T03:58:38;4.60;18.40
18690;DHT22;9782;52.930;15.562;2023-02-02T04:01:08;4.50;1.00
18690;DHT22;9782;52.930;15.562;2023-02-02T04:03:35;4.50;44.20
18690;DHT22;9782;52.930;15.562;2023-02-02T04:06:02;4.50;99.90
18690;DHT22;9782;52.930;15.562;2023-02-02T04:08:29;4.40;99.90
18690;DHT22;9782;52.930;15.562;2023-02-02T04:10:58;4.40;99.90
18690;DHT22;9782;52.930;15.562;2023-02-02T04:13:25;4.40;99.90
18690;DHT22;9782;52.930;15.562;2023-02-02T04:15:57;4.40;99.90
18690;DHT22;9782;52.930;15.562;2023-02-02T04:18:25;4.30;99.90
18690;DHT22;9782;52.930;15.562;2023-02-02T04:20:56;4.30;1.00
18690;DHT22;9782;52.930;15.562;2023-02-02T04:23:23;4.30;1.00
18690;DHT22;9782;52.930;15.562;2023-02-02T04:25:50;4.30;1.00
18690;DHT22;9782;52.930;15.562;2023-02-02T04:28:19;4.30;1.00
18690;DHT22;9782;52.930;15.562;2023-02-02T04:30:48;4.30;1.00
18690;DHT22;9782;52.930;15.562;2023-02-02T04:33:15;4.30;1.00
18690;DHT22;9782;52.930;15.562;2023-02-02T04:35:42;4.30;1.00
18690;DHT22;9782;52.930;15.562;2023-02-02T04:38:10;4.30;1.00
18690;DHT22;9782;52.930;15.562;2023-02-02T04:40:37;4.20;1.00
18690;DHT22;9782;52.930;15.562;2023-02-02T04:43:05;4.20;1.00
18690;DHT22;9782;52.930;15.562;2023-02-02T04:45:33;4.20;1.00
18690;DHT22;9782;52.930;15.562;2023-02-02T04:48:00;4.20;1.00
18690;DHT22;9782;52.930;15.562;2023-02-02T04:50:27;4.20;1.00
18690;DHT22;9782;52.930;15.562;2023-02-02T04:52:53;4.20;1.00
18690;DHT22;9782;52.930;15.562;2023-02-02T04:55:21;4.20;1.00
18690;DHT22;9782;52.930;15.562;2023-02-02T04:57:48;4.30;1.00
18690;DHT22;9782;52.930;15.562;2023-02-02T05:00:15;4.30;1.00
18690;DHT22;9782;52.930;15.562;2023-02-02T05:02:43;4.20;1.00
18690;DHT22;9782;52.930;15.562;2023-02-02T05:05:12;4.20;1.00
18690;DHT22;9782;52.930;15.562;2023-02-02T05:07:39;4.20;1.00
18690;DHT22;9782;52.930;15.562;2023-02-02T05:10:07;4.20;1.00
18690;DHT22;9782;52.930;15.562;2023-02-02T05:12:34;4.20;1.00
18690;DHT22;9782;52.930;15.562;2023-02-02T05:15:01;4.20;1.00
18690;DHT22;9782;52.930;15.562;2023-02-02T05:17:28;4.20;1.00
18690;DHT22;9782;52.930;15.562;2023-02-02T05:19:56;4.20;1.00
18690;DHT22;9782;52.930;15.562;2023-02-02T05:22:23;4.20;1.00
18690;DHT22;9782;52.930;15.562;2023-02-02T05:24:50;4.20;1.00
18690;DHT22;9782;52.930;15.562;2023-02-02T05:27:17;4.20;1.00
18690;DHT22;9782;52.930;15.562;2023-02-02T05:29:46;4.10;1.00
18690;DHT22;9782;52.930;15.562;2023-02-02T05:32:12;4.10;99.90
18690;DHT22;9782;52.930;15.562;2023-02-02T05:34:39;4.10;99.90
18690;DHT22;9782;52.930;15.562;2023-02-02T05:37:07;4.10;39.70
18690;DHT22;9782;52.930;15.562;2023-02-02T05:39:34;4.00;1.00
18690;DHT22;9782;52.930;15.562;2023-02-02T05:42:01;4.00;1.00
18690;DHT22;9782;52.930;15.562;2023-02-02T05:44:28;3.90;99.90
18690;DHT22;9782;52.930;15.562;2023-02-02T05:46:55;3.90;99.90
18690;DHT22;9782;52.930;15.562;2023-02-02T05:49:21;3.80;1.00
18690;DHT22;9782;52.930;15.562;2023-02-02T05:51:51;3.70;1.00
18690;DHT22;9782;52.930;15.562;2023-02-02T05:54:20;3.60;1.00
18690;DHT22;9782;52.930;15.562;2023-02-02T05:56:48;3.60;1.00
18690;DHT22;9782;52.930;15.562;2023-02-02T05:59:15;3.60;1.00
18690;DHT22;9782;52.930;15.562;2023-02-02T06:01:43;3.50;99.90
18690;DHT22;9782;52.930;15.562;2023-02-02T06:04:09;3.40;99.90
18690;DHT22;9782;52.930;15.562;2023-02-02T06:06:36;3.30;99.90
18690;DHT22;9782;52.930;15.562;2023-02-02T06:09:04;3.30;99.90
18690;DHT22;9782;52.930;15.562;2023-02-02T06:11:33;3.30;1.00
18690;DHT22;9782;52.930;15.562;2023-02-02T06:14:00;3.30;1.00
18690;DHT22;9782;52.930;15.562;2023-02-02T06:16:27;3.30;99.90
18690;DHT22;9782;52.930;15.562;2023-02-02T06:18:54;3.30;99.90
18690;DHT22;9782;52.930;15.562;2023-02-02T06:21:21;3.30;1.00
18690;DHT22;9782;52.930;15.562;2023-02-02T06:23:49;3.30;1.00
18690;DHT22;9782;52.930;15.562;2023-02-02T06:26:16;3.30;14.60
18690;DHT22;9782;52.930;15.562;2023-02-02T06:28:47;3.30;89.50
18690;DHT22;9782;52.930;15.562;2023-02-02T06:31:15;3.30;99.90
18690;DHT22;9782;52.930;15.562;2023-02-02T06:33:43;3.40;1.00
18690;DHT22;9782;52.930;15.562;2023-02-02T06:36:10;3.40;1.00
18690;DHT22;9782;52.930;15.562;2023-02-02T06:38:37;3.40;1.00
18690;DHT22;9782;52.930;15.562;2023-02-02T06:41:04;3.40;1.00
18690;DHT22;9782;52.930;15.562;2023-02-02T06:43:32;3.50;1.00
18690;DHT22;9782;52.930;15.562;2023-02-02T06:46:00;3.50;99.90
18690;DHT22;9782;52.930;15.562;2023-02-02T06:48:27;3.50;99.90
18690;DHT22;9782;52.930;15.562;2023-02-02T06:50:57;3.50;49.00
18690;DHT22;9782;52.930;15.562;2023-02-02T06:53:24;3.50;1.00
18690;DHT22;9782;52.930;15.562;2023-02-02T06:55:54;3.50;1.00
18690;DHT22;9782;52.930;15.562;2023-02-02T06:58:21;3.60;1.00
18690;DHT22;9782;52.930;15.562;2023-02-02T07:00:48;3.60;1.00
18690;DHT22;9782;52.930;15.562;2023-02-02T07:03:17;3.60;1.00
18690;DHT22;9782;52.930;15.562;2023-02-02T07:05:45;3.60;1.00
18690;DHT22;9782;52.930;15.562;2023-02-02T07:08:12;3.60;99.90
18690;DHT22;9782;52.930;15.562;2023-02-02T07:10:39;3.60;99.90
18690;DHT22;9782;52.930;15.562;2023-02-02T07:13:07;3.60;99.90
18690;DHT22;9782;52.930;15.562;2023-02-02T07:15:36;3.50;1.00
18690;DHT22;9782;52.930;15.562;2023-02-02T07:18:04;3.50;1.00
18690;DHT22;9782;52.930;15.562;2023-02-02T07:20:32;3.60;1.00
18690;DHT22;9782;52.930;15.562;2023-02-02T07:22:59;3.60;1.00
18690;DHT22;9782;52.930;15.562;2023-02-02T07:25:28;3.70;99.90
18690;DHT22;9782;52.930;15.562;2023-02-02T07:27:55;3.80;99.90
18690;DHT22;9782;52.930;15.562;2023-02-02T07:30:22;3.90;99.90
18690;DHT22;9782;52.930;15.562;2023-02-02T07:32:49;3.90;99.90
18690;DHT22;9782;52.930;15.562;2023-02-02T07:35:16;3.90;99.90
18690;DHT22;9782;52.930;15.562;2023-02-02T07:37:50;3.90;99.90
18690;DHT22;9782;52.930;15.562;2023-02-02T07:40:18;4.00;98.40
18690;DHT22;9782;52.930;15.562;2023-02-02T07:42:45;4.00;1.00
18690;DHT22;9782;52.930;15.562;2023-02-02T07:45:13;4.00;1.00
18690;DHT22;9782;52.930;15.562;2023-02-02T07:47:40;4.00;1.00
18690;DHT22;9782;52.930;15.562;2023-02-02T07:50:08;4.00;1.00
18690;DHT22;9782;52.930;15.562;2023-02-02T07:52:35;4.00;1.00
18690;DHT22;9782;52.930;15.562;2023-02-02T07:55:04;4.00;1.00
18690;DHT22;9782;52.930;15.562;2023-02-02T07:57:31;4.00;1.00
18690;DHT22;9782;52.930;15.562;2023-02-02T07:59:58;4.00;1.00
18690;DHT22;9782;52.930;15.562;2023-02-02T08:02:24;4.00;1.00
18690;DHT22;9782;52.930;15.562;2023-02-02T08:04:51;3.90;1.00
18690;DHT22;9782;52.930;15.562;2023-02-02T08:07:18;3.90;1.00
18690;DHT22;9782;52.930;15.562;2023-02-02T08:09:49;3.90;1.00
18690;DHT22;9782;52.930;15.562;2023-02-02T08:12:18;3.80;1.00
18690;DHT22;9782;52.930;15.562;2023-02-02T08:14:45;3.70;1.00
18690;DHT22;9782;52.930;15.562;2023-02-02T08:17:12;3.80;1.00
18690;DHT22;9782;52.930;15.562;2023-02-02T08:19:39;3.70;1.00
18690;DHT22;9782;52.930;15.562;2023-02-02T08:22:06;3.70;1.00
18690;DHT22;9782;52.930;15.562;2023-02-02T08:24:33;3.60;1.00
18690;DHT22;9782;52.930;15.562;2023-02-02T08:27:05;3.50;99.90
18690;DHT22;9782;52.930;15.562;2023-02-02T08:29:33;3.40;99.90
18690;DHT22;9782;52.930;15.562;2023-02-02T08:32:00;3.40;99.90
18690;DHT22;9782;52.930;15.562;2023-02-02T08:34:27;3.50;1.00
18690;DHT22;9782;52.930;15.562;2023-02-02T08:36:54;3.50;1.00
18690;DHT22;9782;52.930;15.562;2023-02-02T08:39:21;3.60;99.90
18690;DHT22;9782;52.930;15.562;2023-02-02T08:41:49;3.70;77.80
18690;DHT22;9782;52.930;15.562;2023-02-02T08:44:16;3.70;1.00
18690;DHT22;9782;52.930;15.562;2023-02-02T08:46:44;3.80;1.00
18690;DHT22;9782;52.930;15.562;2023-02-02T08:49:11;4.00;1.00
18690;DHT22;9782;52.930;15.562;2023-02-02T08:51:39;4.10;1.00
18690;DHT22;9782;52.930;15.562;2023-02-02T08:54:06;4.20;1.00
18690;DHT22;9782;52.930;15.562;2023-02-02T08:56:33;4.20;1.00
18690;DHT22;9782;52.930;15.562;2023-02-02T08:59:00;4.30;1.00
18690;DHT22;9782;52.930;15.562;2023-02-02T09:01:30;4.30;1.00
18690;DHT22;9782;52.930;15.562;2023-02-02T09:04:00;4.20;1.00
18690;DHT22;9782;52.930;15.562;2023-02-02T09:06:30;4.20;1.00
18690;DHT22;9782;52.930;15.562;2023-02-02T09:08:57;4.10;1.00
18690;DHT22;9782;52.930;15.562;2023-02-02T09:11:24;4.20;99.90
18690;DHT22;9782;52.930;15.562;2023-02-02T09:13:53;4.20;99.90
18690;DHT22;9782;52.930;15.562;2023-02-02T09:16:21;4.20;99.90
18690;DHT22;9782;52.930;15.562;2023-02-02T09:18:48;4.10;99.90
18690;DHT22;9782;52.930;15.562;2023-02-02T09:21:18;4.10;99.90
18690;DHT22;9782;52.930;15.562;2023-02-02T09:23:47;4.10;99.90
18690;DHT22;9782;52.930;15.562;2023-02-02T09:26:16;4.10;99.90
18690;DHT22;9782;52.930;15.562;2023-02-02T09:28:45;4.20;1.00
18690;DHT22;9782;52.930;15.562;2023-02-02T09:31:12;4.30;99.90
18690;DHT22;9782;52.930;15.562;2023-02-02T09:33:39;4.40;99.90
18690;DHT22;9782;52.930;15.562;2023-02-02T09:36:08;4.40;25.90
18690;DHT22;9782;52.930;15.562;2023-02-02T09:38:37;4.40;1.00
18690;DHT22;9782;52.930;15.562;2023-02-02T09:41:24;4.40;1.00
18690;DHT22;9782;52.930;15.562;2023-02-02T09:44:01;4.30;21.70
18690;DHT22;9782;52.930;15.562;2023-02-02T09:46:35;4.40;86.50
18690;DHT22;9782;52.930;15.562;2023-02-02T09:49:08;4.40;1.00
18690;DHT22;9782;52.930;15.562;2023-02-02T09:51:40;4.30;1.00
18690;DHT22;9782;52.930;15.562;2023-02-02T09:54:16;4.20;1.00
18690;DHT22;9782;52.930;15.562;2023-02-02T09:56:45;4.00;93.90
18690;DHT22;9782;52.930;15.562;2023-02-02T09:59:18;3.90;99.90
18690;DHT22;9782;52.930;15.562;2023-02-02T10:01:48;3.60;1.00
18690;DHT22;9782;52.930;15.562;2023-02-02T10:04:21;3.40;99.90
18690;DHT22;9782;52.930;15.562;2023-02-02T10:06:50;3.30;1.00
18690;DHT22;9782;52.930;15.562;2023-02-02T10:09:26;3.10;1.00
18690;DHT22;9782;52.930;15.562;2023-02-02T10:12:00;3.20;99.90
18690;DHT22;9782;52.930;15.562;2023-02-02T10:14:34;3.30;99.90
18690;DHT22;9782;52.930;15.562;2023-02-02T10:17:14;3.40;99.90
18690;DHT22;9782;52.930;15.562;2023-02-02T10:19:48;3.50;1.00
18690;DHT22;9782;52.930;15.562;2023-02-02T10:22:18;3.70;99.90
18690;DHT22;9782;52.930;15.562;2023-02-02T10:24:47;3.70;1.00
18690;DHT22;9782;52.930;15.562;2023-02-02T10:27:15;3.70;1.00
18690;DHT22;9782;52.930;15.562;2023-02-02T10:29:49;3.80;1.00
18690;DHT22;9782;52.930;15.562;2023-02-02T10:32:23;3.70;1.00
18690;DHT22;9782;52.930;15.562;2023-02-02T10:34:59;3.70;1.00
18690;DHT22;9782;52.930;15.562;2023-02-02T10:37:32;3.60;1.00
18690;DHT22;9782;52.930;15.562;2023-02-02T10:40:16;3.70;83.90
18690;DHT22;9782;52.930;15.562;2023-02-02T10:42:55;4.00;1.00
18690;DHT22;9782;52.930;15.562;2023-02-02T10:45:42;4.10;99.90
18690;DHT22;9782;52.930;15.562;2023-02-02T10:48:13;4.10;1.00
18690;DHT22;9782;52.930;15.562;2023-02-02T10:50:43;4.10;1.00
18690;DHT22;9782;52.930;15.562;2023-02-02T10:53:13;4.10;1.00
18690;DHT22;9782;52.930;15.562;2023-02-02T10:55:47;4.20;1.00
18690;DHT22;9782;52.930;15.562;2023-02-02T10:58:21;4.30;1.00
18690;DHT22;9782;52.930;15.562;2023-02-02T11:00:51;4.40;99.90
18690;DHT22;9782;52.930;15.562;2023-02-02T11:03:22;4.40;91.00
18690;DHT22;9782;52.930;15.562;2023-02-02T11:05:49;4.40;99.90
18690;DHT22;9782;52.930;15.562;2023-02-02T11:08:35;4.40;18.10
18690;DHT22;9782;52.930;15.562;2023-02-02T11:11:11;4.40;1.00
18690;DHT22;9782;52.930;15.562;2023-02-02T11:13:45;4.20;1.00
18690;DHT22;9782;52.930;15.562;2023-02-02T11:16:23;4.10;99.90
18690;DHT22;9782;52.930;15.562;2023-02-02T11:18:51;4.10;99.90
18690;DHT22;9782;52.930;15.562;2023-02-02T11:21:21;4.20;99.90
18690;DHT22;9782;52.930;15.562;2023-02-02T11:23:56;4.20;99.90
18690;DHT22;9782;52.930;15.562;2023-02-02T11:26:27;4.30;1.00
18690;DHT22;9782;52.930;15.562;2023-02-02T11:29:12;4.40;1.00
18690;DHT22;9782;52.930;15.562;2023-02-02T11:31:40;4.40;1.00
18690;DHT22;9782;52.930;15.562;2023-02-02T11:34:09;4.60;1.00
18690;DHT22;9782;52.930;15.562;2023-02-02T11:36:36;4.60;1.00
18690;DHT22;9782;52.930;15.562;2023-02-02T11:39:21;4.60;99.90
18690;DHT22;9782;52.930;15.562;2023-02-02T11:41:49;4.70;1.00
18690;DHT22;9782;52.930;15.562;2023-02-02T11:44:21;4.70;99.90
18690;DHT22;9782;52.930;15.562;2023-02-02T11:46:50;4.70;99.90
18690;DHT22;9782;52.930;15.562;2023-02-02T11:49:19;4.70;99.90
18690;DHT22;9782;52.930;15.562;2023-02-02T11:51:56;4.80;99.90
18690;DHT22;9782;52.930;15.562;2023-02-02T11:54:26;4.80;99.90
18690;DHT22;9782;52.930;15.562;2023-02-02T11:56:57;4.90;99.90
18690;DHT22;9782;52.930;15.562;2023-02-02T11:59:28;5.00;1.00
18690;DHT22;9782;52.930;15.562;2023-02-02T12:02:23;4.90;1.00
18690;DHT22;9782;52.930;15.562;2023-02-02T12:04:52;4.90;1.00
18690;DHT22;9782;52.930;15.562;2023-02-02T12:07:23;5.00;1.00
18690;DHT22;9782;52.930;15.562;2023-02-02T12:09:51;4.90;1.00
18690;DHT22;9782;52.930;15.562;2023-02-02T12:12:30;5.00;1.00
18690;DHT22;9782;52.930;15.562;2023-02-02T12:15:11;4.90;1.00
18690;DHT22;9782;52.930;15.562;2023-02-02T12:17:41;5.00;1.00
18690;DHT22;9782;52.930;15.562;2023-02-02T12:20:15;5.00;99.90
18690;DHT22;9782;52.930;15.562;2023-02-02T12:23:03;4.90;99.90
18690;DHT22;9782;52.930;15.562;2023-02-02T12:25:46;4.80;99.90
18690;DHT22;9782;52.930;15.562;2023-02-02T12:28:26;4.80;99.90
18690;DHT22;9782;52.930;15.562;2023-02-02T12:31:01;4.80;99.90
18690;DHT22;9782;52.930;15.562;2023-02-02T12:33:35;4.80;99.90
18690;DHT22;9782;52.930;15.562;2023-02-02T12:36:22;4.80;79.40
18690;DHT22;9782;52.930;15.562;2023-02-02T12:39:08;4.80;1.00
18690;DHT22;9782;52.930;15.562;2023-02-02T12:41:52;4.60;1.00
18690;DHT22;9782;52.930;15.562;2023-02-02T12:44:31;4.40;36.10
18690;DHT22;9782;52.930;15.562;2023-02-02T12:47:11;4.20;99.90
18690;DHT22;9782;52.930;15.562;2023-02-02T12:49:59;4.30;99.90
18690;DHT22;9782;52.930;15.562;2023-02-02T12:52:42;4.30;99.90
18690;DHT22;9782;52.930;15.562;2023-02-02T12:55:21;4.40;1.00
18690;DHT22;9782;52.930;15.562;2023-02-02T12:57:55;4.40;1.00
18690;DHT22;9782;52.930;15.562;2023-02-02T13:00:39;4.50;1.00
18690;DHT22;9782;52.930;15.562;2023-02-02T13:03:20;4.50;1.00
18690;DHT22;9782;52.930;15.562;2023-02-02T13:06:00;4.50;1.00
18690;DHT22;9782;52.930;15.562;2023-02-02T13:08:32;4.50;1.00
18690;DHT22;9782;52.930;15.562;2023-02-02T13:11:04;4.60;1.00
18690;DHT22;9782;52.930;15.562;2023-02-02T13:13:52;4.70;1.00
18690;DHT22;9782;52.930;15.562;2023-02-02T13:16:21;4.70;1.00
18690;DHT22;9782;52.930;15.562;2023-02-02T13:18:52;4.80;1.00
18690;DHT22;9782;52.930;15.562;2023-02-02T13:21:23;4.80;1.00
18690;DHT22;9782;52.930;15.562;2023-02-02T13:23:52;4.80;1.00
18690;DHT22;9782;52.930;15.562;2023-02-02T13:26:24;4.70;1.00
18690;DHT22;9782;52.930;15.562;2023-02-02T13:28:56;4.60;1.00
18690;DHT22;9782;52.930;15.562;2023-02-02T13:31:29;4.60;1.00
18690;DHT22;9782;52.930;15.562;2023-02-02T13:34:03;4.50;1.00
18690;DHT22;9782;52.930;15.562;2023-02-02T13:36:31;4.50;24.20
18690;DHT22;9782;52.930;15.562;2023-02-02T13:39:11;4.50;99.90
18690;DHT22;9782;52.930;15.562;2023-02-02T13:41:40;4.60;99.90
18690;DHT22;9782;52.930;15.562;2023-02-02T13:44:12;4.70;99.90
18690;DHT22;9782;52.930;15.562;2023-02-02T13:46:46;4.60;99.90
18690;DHT22;9782;52.930;15.562;2023-02-02T13:49:18;4.50;99.90
18690;DHT22;9782;52.930;15.562;2023-02-02T13:52:00;4.40;99.90
18690;DHT22;9782;52.930;15.562;2023-02-02T13:58:03;4.30;99.90
18690;DHT22;9782;52.930;15.562;2023-02-02T14:00:34;4.40;99.90
18690;DHT22;9782;52.930;15.562;2023-02-02T14:03:05;4.40;99.90
18690;DHT22;9782;52.930;15.562;2023-02-02T14:05:35;4.50;99.90
18690;DHT22;9782;52.930;15.562;2023-02-02T14:08:04;4.50;1.00
18690;DHT22;9782;52.930;15.562;2023-02-02T14:10:34;4.50;1.00
18690;DHT22;9782;52.930;15.562;2023-02-02T14:13:12;4.50;1.00
18690;DHT22;9782;52.930;15.562;2023-02-02T14:15:54;4.50;1.00
18690;DHT22;9782;52.930;15.562;2023-02-02T14:21:58;4.40;99.90
18690;DHT22;9782;52.930;15.562;2023-02-02T14:24:46;4.40;99.90
18690;DHT22;9782;52.930;15.562;2023-02-02T14:27:39;4.40;99.90
18690;DHT22;9782;52.930;15.562;2023-02-02T14:30:19;4.30;99.90
18690;DHT22;9782;52.930;15.562;2023-02-02T14:32:47;4.30;99.90
18690;DHT22;9782;52.930;15.562;2023-02-02T14:35:53;4.30;99.90
18690;DHT22;9782;52.930;15.562;2023-02-02T14:38:31;4.30;99.90
18690;DHT22;9782;52.930;15.562;2023-02-02T14:41:09;4.20;99.90
18690;DHT22;9782;52.930;15.562;2023-02-02T14:43:47;4.20;99.90
18690;DHT22;9782;52.930;15.562;2023-02-02T14:46:23;4.20;99.90
18690;DHT22;9782;52.930;15.562;2023-02-02T14:49:13;4.10;99.90
18690;DHT22;9782;52.930;15.562;2023-02-02T14:51:50;4.10;99.90
18690;DHT22;9782;52.930;15.562;2023-02-02T14:54:23;4.00;99.90
18690;DHT22;9782;52.930;15.562;2023-02-02T14:56:54;3.90;99.90
18690;DHT22;9782;52.930;15.562;2023-02-02T14:59:25;3.80;99.90
18690;DHT22;9782;52.930;15.562;2023-02-02T15:01:58;3.60;99.90
18690;DHT22;9782;52.930;15.562;2023-02-02T15:04:27;3.50;99.90
18690;DHT22;9782;52.930;15.562;2023-02-02T15:06:54;3.50;99.90
18690;DHT22;9782;52.930;15.562;2023-02-02T15:09:35;3.50;99.90
18690;DHT22;9782;52.930;15.562;2023-02-02T15:12:21;3.50;99.90
18690;DHT22;9782;52.930;15.562;2023-02-02T15:14:54;3.50;99.90
18690;DHT22;9782;52.930;15.562;2023-02-02T15:17:27;3.50;99.90
18690;DHT22;9782;52.930;15.562;2023-02-02T15:20:05;3.60;99.90
18690;DHT22;9782;52.930;15.562;2023-02-02T15:22:36;3.50;99.90
18690;DHT22;9782;52.930;15.562;2023-02-02T15:25:17;3.50;99.90
18690;DHT22;9782;52.930;15.562;2023-02-02T15:27:52;3.30;99.90
18690;DHT22;9782;52.930;15.562;2023-02-02T15:30:27;3.30;99.90
18690;DHT22;9782;52.930;15.562;2023-02-02T15:33:01;3.10;99.90
18690;DHT22;9782;52.930;15.562;2023-02-02T15:35:31;3.00;99.90
18690;DHT22;9782;52.930;15.562;2023-02-02T15:38:00;3.00;99.90
18690;DHT22;9782;52.930;15.562;2023-02-02T15:40:31;3.00;99.90
18690;DHT22;9782;52.930;15.562;2023-02-02T15:43:04;3.00;99.90
18690;DHT22;9782;52.930;15.562;2023-02-02T15:45:38;3.00;99.90
18690;DHT22;9782;52.930;15.562;2023-02-02T15:48:19;3.00;99.90
18690;DHT22;9782;52.930;15.562;2023-02-02T15:50:48;3.00;99.90
18690;DHT22;9782;52.930;15.562;2023-02-02T15:53:21;3.10;99.90
18690;DHT22;9782;52.930;15.562;2023-02-02T15:55:50;3.00;99.90
18690;DHT22;9782;52.930;15.562;2023-02-02T15:58:29;3.00;99.90
18690;DHT22;9782;52.930;15.562;2023-02-02T16:01:00;3.00;99.90
18690;DHT22;9782;52.930;15.562;2023-02-02T16:03:36;2.90;99.90
18690;DHT22;9782;52.930;15.562;2023-02-02T16:06:05;2.80;99.90
18690;DHT22;9782;52.930;15.562;2023-02-02T16:08:35;2.70;99.90
18690;DHT22;9782;52.930;15.562;2023-02-02T16:11:08;2.60;99.90
18690;DHT22;9782;52.930;15.562;2023-02-02T16:13:36;2.50;99.90
18690;DHT22;9782;52.930;15.562;2023-02-02T16:16:05;2.40;99.90
18690;DHT22;9782;52.930;15.562;2023-02-02T16:18:33;2.40;99.90
18690;DHT22;9782;52.930;15.562;2023-02-02T16:21:05;2.30;99.90
18690;DHT22;9782;52.930;15.562;2023-02-02T16:23:35;2.30;99.90
18690;DHT22;9782;52.930;15.562;2023-02-02T16:26:06;2.20;99.90
18690;DHT22;9782;52.930;15.562;2023-02-02T16:28:33;2.20;1.00
18690;DHT22;9782;52.930;15.562;2023-02-02T16:31:00;2.20;1.00
18690;DHT22;9782;52.930;15.562;2023-02-02T16:33:38;2.20;1.00